Chattanooga (CHA/KCHA)

Map

Destinations

Information

Location
Chattanooga, TN
Local Time
21:43 / 9:43 pm
GMT Time
02:43 / 2:43 am
Gates
Unassigned
No FAA reported delays
METAR KCHA 170153Z 19005KT 10SM FEW090 BKN190 17/12 A3020 RMK AO2 SLP224 T01670117 $
TAF KCHA 162335Z 1700/1724 16005KT P6SM SCT045 BKN080 FM170800 19003KT 6SM BR BKN035 FM171500 19008G18KT P6SM SCT040 OVC070 FM172100 20010KT 6SM -TSRA BR SCT030 BKN045CB
  • No charts available